createdAt,value
2024-01-20T00:01:05.772Z,105.13
2024-01-20T00:03:34.371Z,107.65
2024-01-20T00:06:03.072Z,110.45
2024-01-20T00:08:31.689Z,119.00
2024-01-20T00:11:00.240Z,103.18
2024-01-20T00:13:28.827Z,106.85
2024-01-20T00:15:58.769Z,117.75
2024-01-20T00:18:29.278Z,112.10
2024-01-20T00:20:58.078Z,111.10
2024-01-20T00:23:26.813Z,113.83
2024-01-20T00:25:55.876Z,119.22
2024-01-20T00:28:24.361Z,103.70
2024-01-20T00:30:52.811Z,121.93
2024-01-20T00:33:22.193Z,121.13
2024-01-20T00:35:52.179Z,96.32
2024-01-20T00:38:20.768Z,108.80
2024-01-20T00:40:49.522Z,108.57
2024-01-20T00:43:18.583Z,108.55
2024-01-20T00:45:50.632Z,108.60
2024-01-20T00:48:19.340Z,115.80
2024-01-20T00:50:48.092Z,100.70
2024-01-20T00:53:18.058Z,114.65
2024-01-20T00:55:47.176Z,115.05
2024-01-20T00:58:15.769Z,95.17
2024-01-20T01:00:44.209Z,111.57
2024-01-20T01:03:12.701Z,102.18
2024-01-20T01:05:41.276Z,108.80
2024-01-20T01:08:09.861Z,113.03
2024-01-20T01:10:39.863Z,109.05
2024-01-20T01:13:08.510Z,98.80
2024-01-20T01:15:37.171Z,86.15
2024-01-20T01:18:06.745Z,98.90
2024-01-20T01:20:35.304Z,97.85
2024-01-20T01:23:04.006Z,110.45
2024-01-20T01:25:32.513Z,96.72
2024-01-20T01:28:03.021Z,114.82
2024-01-20T01:30:31.564Z,99.50
2024-01-20T01:33:00.502Z,103.65
2024-01-20T01:35:29.203Z,107.20
2024-01-20T01:37:59.547Z,106.75
2024-01-20T01:40:28.330Z,94.70
2024-01-20T01:42:58.497Z,106.95
2024-01-20T01:45:28.706Z,106.45
2024-01-20T01:47:58.627Z,93.73
2024-01-20T01:50:28.571Z,102.63
2024-01-20T01:52:58.208Z,104.72
2024-01-20T01:55:28.395Z,90.30
2024-01-20T01:57:59.168Z,107.22
2024-01-20T02:00:31.927Z,103.57
2024-01-20T02:03:00.745Z,103.10
2024-01-20T02:05:29.636Z,100.95
2024-01-20T02:08:01.041Z,90.68
2024-01-20T02:10:30.963Z,103.95
2024-01-20T02:13:01.774Z,102.72
2024-01-20T02:15:32.065Z,91.22
2024-01-20T02:18:00.974Z,100.63
2024-01-20T02:20:29.827Z,116.10
2024-01-20T02:23:02.413Z,103.28
2024-01-20T02:25:31.103Z,108.03
2024-01-20T02:28:01.060Z,112.57
2024-01-20T02:30:29.720Z,111.10
2024-01-20T02:32:58.350Z,108.18
2024-01-20T02:35:26.882Z,116.03
2024-01-20T02:37:55.439Z,105.90
2024-01-20T02:40:25.577Z,107.03
2024-01-20T02:42:54.060Z,105.95
2024-01-20T02:45:22.605Z,117.10
2024-01-20T02:47:52.707Z,99.07
2024-01-20T02:50:21.280Z,104.65
2024-01-20T02:52:50.213Z,98.35
2024-01-20T02:55:19.037Z,105.15
2024-01-20T02:57:48.959Z,98.45
2024-01-20T03:00:17.723Z,101.05
2024-01-20T03:02:46.432Z,91.03
2024-01-20T03:05:15.178Z,94.75
2024-01-20T03:07:43.651Z,95.60
2024-01-20T03:10:12.838Z,101.53
2024-01-20T03:12:41.412Z,107.60
2024-01-20T03:15:12.069Z,98.20
2024-01-20T03:17:40.973Z,112.57
2024-01-20T03:20:11.221Z,107.35
2024-01-20T03:22:39.671Z,94.97
2024-01-20T03:25:09.834Z,103.68
2024-01-20T03:27:38.833Z,99.80
2024-01-20T03:30:10.937Z,101.80
2024-01-20T03:32:39.885Z,98.07
2024-01-20T03:35:09.419Z,104.43
2024-01-20T03:37:38.093Z,110.32
2024-01-20T03:40:08.164Z,100.72
2024-01-20T03:42:36.837Z,115.50
2024-01-20T03:45:06.489Z,109.80
2024-01-20T03:47:36.365Z,99.75
2024-01-20T03:50:06.689Z,99.97
2024-01-20T03:52:35.277Z,106.57
2024-01-20T03:55:03.780Z,108.80
2024-01-20T03:57:32.723Z,95.17
2024-01-20T04:00:01.269Z,104.63
2024-01-20T04:02:30.103Z,109.57
2024-01-20T04:05:00.115Z,114.35
2024-01-20T04:07:28.617Z,103.43
2024-01-20T04:09:57.355Z,100.78
2024-01-20T04:12:26.058Z,95.45
2024-01-20T04:14:56.842Z,105.35
2024-01-20T04:17:25.497Z,106.82
2024-01-20T04:19:54.370Z,99.78
2024-01-20T04:22:24.592Z,97.22
2024-01-20T04:24:53.026Z,100.47
2024-01-20T04:27:21.596Z,104.07
2024-01-20T04:29:50.071Z,99.90
2024-01-20T04:32:18.546Z,95.95
2024-01-20T04:34:48.572Z,115.22
2024-01-20T04:37:16.993Z,105.72
2024-01-20T04:39:46.944Z,96.65
2024-01-20T04:42:15.524Z,110.15
2024-01-20T04:44:44.111Z,91.95
2024-01-20T04:47:12.707Z,85.35
2024-01-20T04:49:41.315Z,95.80
2024-01-20T04:52:10.153Z,88.07
2024-01-20T04:54:38.748Z,96.73
2024-01-20T04:57:08.762Z,86.43
2024-01-20T04:59:37.192Z,97.93
2024-01-20T05:02:06.075Z,90.22
2024-01-20T05:04:34.678Z,96.95
2024-01-20T05:07:03.287Z,88.13
2024-01-20T05:09:31.811Z,87.55
2024-01-20T05:12:00.331Z,88.60
2024-01-20T05:14:30.607Z,93.27
2024-01-20T05:16:59.263Z,86.93
2024-01-20T05:19:27.933Z,91.07
2024-01-20T05:21:56.350Z,88.95
2024-01-20T05:24:24.800Z,80.97
2024-01-20T05:26:53.371Z,82.22
2024-01-20T05:29:21.872Z,85.07
2024-01-20T05:31:52.037Z,85.80
2024-01-20T05:34:20.572Z,88.78
2024-01-20T05:36:49.487Z,73.22
2024-01-20T05:39:18.046Z,78.43
2024-01-20T05:41:46.454Z,84.55
2024-01-20T05:44:16.510Z,83.50
2024-01-20T05:46:45.176Z,74.57
2024-01-20T05:49:15.338Z,83.97
2024-01-20T05:51:43.781Z,77.95
2024-01-20T05:54:12.548Z,89.28
2024-01-20T05:56:41.019Z,70.35
2024-01-20T05:59:09.574Z,72.65
2024-01-20T06:01:37.996Z,69.85
2024-01-20T06:04:06.551Z,75.20
2024-01-20T06:06:36.424Z,72.40
2024-01-20T06:09:05.221Z,97.82
2024-01-20T06:11:34.080Z,82.70
2024-01-20T06:14:02.704Z,81.45
2024-01-20T06:16:31.197Z,86.55
2024-01-20T06:18:59.700Z,84.97
2024-01-20T06:21:28.450Z,71.70
2024-01-20T06:23:58.309Z,77.93
2024-01-20T06:26:26.969Z,93.10
2024-01-20T06:28:55.469Z,85.03
2024-01-20T06:31:28.934Z,79.88
2024-01-20T06:33:57.774Z,91.25
2024-01-20T06:36:27.296Z,102.75
2024-01-20T06:38:57.373Z,85.72
2024-01-20T06:41:25.901Z,77.50
2024-01-20T06:43:54.303Z,84.03
2024-01-20T06:46:22.812Z,83.45
2024-01-20T06:48:51.653Z,85.40
2024-01-20T06:51:24.151Z,88.93
2024-01-20T06:53:58.195Z,100.15
2024-01-20T06:56:28.152Z,77.70
2024-01-20T06:58:58.044Z,88.55
2024-01-20T07:01:27.062Z,84.30
2024-01-20T07:03:55.723Z,78.25
2024-01-20T07:06:26.167Z,85.05
2024-01-20T07:08:56.201Z,83.68
2024-01-20T07:11:27.812Z,82.53
2024-01-20T07:13:56.259Z,71.63
2024-01-20T07:16:24.886Z,84.80
2024-01-20T07:18:55.770Z,83.90
2024-01-20T07:21:24.774Z,81.68
2024-01-20T07:23:54.592Z,94.05
2024-01-20T07:26:23.181Z,86.13
2024-01-20T07:28:53.091Z,86.97
2024-01-20T07:31:21.865Z,92.05
2024-01-20T07:33:50.544Z,88.18
2024-01-20T07:36:19.203Z,99.20
2024-01-20T07:38:48.638Z,93.15
2024-01-20T07:41:17.194Z,84.43
2024-01-20T07:43:45.602Z,88.32
2024-01-20T07:46:15.661Z,95.75
2024-01-20T07:48:44.828Z,100.07
2024-01-20T07:51:13.594Z,89.00
2024-01-20T07:53:42.029Z,89.65
2024-01-20T07:56:12.827Z,83.53
2024-01-20T07:58:41.222Z,78.97
2024-01-20T08:01:10.390Z,81.93
2024-01-20T08:03:40.757Z,83.72
2024-01-20T08:06:10.332Z,81.28
2024-01-20T08:08:38.872Z,71.07
2024-01-20T08:11:07.466Z,87.43
2024-01-20T08:13:35.923Z,87.95
2024-01-20T08:16:04.676Z,80.88
2024-01-20T08:18:33.130Z,78.35
2024-01-20T08:21:08.066Z,72.88
2024-01-20T08:23:36.729Z,81.75
2024-01-20T08:26:05.701Z,73.90
2024-01-20T08:28:34.314Z,72.90
2024-01-20T08:31:02.985Z,71.20
2024-01-20T08:33:31.719Z,68.63
2024-01-20T08:36:00.302Z,65.50
2024-01-20T08:38:30.199Z,65.90
2024-01-20T08:40:59.290Z,69.20
2024-01-20T08:43:29.358Z,61.27
2024-01-20T08:45:57.897Z,63.03
2024-01-20T08:48:26.844Z,66.00
2024-01-20T08:50:55.256Z,71.17
2024-01-20T08:53:23.779Z,58.83
2024-01-20T08:55:53.597Z,67.70
2024-01-20T08:58:22.189Z,68.03
2024-01-20T09:00:54.584Z,63.33
2024-01-20T09:03:23.250Z,59.83
2024-01-20T09:05:51.875Z,62.77
2024-01-20T09:08:20.402Z,60.33
2024-01-20T09:10:48.857Z,69.17
2024-01-20T09:13:19.267Z,67.80
2024-01-20T09:15:47.880Z,61.50
2024-01-20T09:18:17.480Z,68.87
2024-01-20T09:20:46.940Z,64.53
2024-01-20T09:23:15.587Z,61.00
2024-01-20T09:25:45.762Z,57.43
2024-01-20T09:28:15.641Z,60.30
2024-01-20T09:30:45.734Z,54.37
2024-01-20T09:33:15.449Z,55.20
2024-01-20T09:35:46.757Z,53.10
2024-01-20T09:38:15.423Z,54.80
2024-01-20T09:40:44.060Z,57.47
2024-01-20T09:43:13.402Z,57.40
2024-01-20T09:45:42.393Z,64.23
2024-01-20T09:48:12.556Z,54.43
2024-01-20T09:50:41.364Z,57.33
2024-01-20T09:53:16.916Z,57.83
2024-01-20T09:55:47.176Z,55.20
2024-01-20T09:58:18.767Z,53.40
2024-01-20T10:00:48.069Z,43.43
2024-01-20T10:03:21.712Z,49.33
2024-01-20T10:05:53.167Z,50.07
2024-01-20T10:08:21.568Z,49.70
2024-01-20T10:10:50.320Z,47.13
2024-01-20T10:13:20.865Z,44.00
2024-01-20T10:15:49.360Z,50.40
2024-01-20T10:18:19.460Z,53.73
2024-01-20T10:20:49.062Z,48.60
2024-01-20T10:23:19.699Z,50.73
2024-01-20T10:25:48.137Z,43.47
2024-01-20T10:28:16.543Z,48.70
2024-01-20T10:30:45.433Z,42.93
2024-01-20T10:33:15.534Z,43.17
2024-01-20T10:35:45.442Z,47.43
2024-01-20T10:38:16.249Z,45.80
2024-01-20T10:40:46.417Z,42.50
2024-01-20T10:43:17.511Z,47.77
2024-01-20T10:46:01.785Z,38.17
2024-01-20T10:48:35.084Z,43.00
2024-01-20T10:51:11.307Z,42.30
2024-01-20T10:53:41.030Z,47.43
2024-01-20T10:56:10.407Z,39.87
2024-01-20T10:58:48.946Z,45.80
2024-01-20T11:01:18.590Z,41.80
2024-01-20T11:03:47.348Z,41.67
2024-01-20T11:06:23.161Z,39.40
2024-01-20T11:08:52.581Z,44.80
2024-01-20T11:11:21.747Z,36.97
2024-01-20T11:13:50.723Z,37.90
2024-01-20T11:16:23.628Z,38.27
2024-01-20T11:18:52.344Z,40.70
2024-01-20T11:21:22.304Z,41.80
2024-01-20T11:24:00.539Z,38.00
2024-01-20T11:26:34.917Z,35.10
2024-01-20T11:29:05.738Z,38.13
2024-01-20T11:31:35.096Z,37.47
2024-01-20T11:34:07.175Z,38.70
2024-01-20T11:36:37.935Z,36.40
2024-01-20T11:39:07.434Z,35.17
2024-01-20T11:41:36.153Z,36.77
2024-01-20T11:44:04.726Z,36.83
2024-01-20T11:46:33.461Z,37.97
2024-01-20T11:49:02.029Z,31.83
2024-01-20T11:51:30.645Z,34.07
2024-01-20T11:54:00.718Z,32.47
2024-01-20T11:56:29.721Z,34.60
2024-01-20T11:58:58.303Z,32.70
2024-01-20T12:01:26.785Z,36.37
2024-01-20T12:03:56.130Z,37.90
2024-01-20T12:06:24.958Z,36.30
2024-01-20T12:08:53.649Z,32.20
2024-01-20T12:11:25.521Z,39.30
2024-01-20T12:13:54.308Z,33.67
2024-01-20T12:16:23.429Z,35.00
2024-01-20T12:18:52.031Z,35.23
2024-01-20T12:21:20.728Z,34.57
2024-01-20T12:23:49.606Z,34.37
2024-01-20T12:26:18.439Z,32.97
2024-01-20T12:28:51.617Z,26.53
2024-01-20T12:31:22.898Z,33.10
2024-01-20T12:33:52.448Z,30.73
2024-01-20T12:36:21.382Z,30.50
2024-01-20T12:38:50.595Z,32.70
2024-01-20T12:41:19.093Z,32.13
2024-01-20T12:43:50.366Z,31.67
2024-01-20T12:46:20.091Z,30.20
2024-01-20T12:48:48.654Z,31.10
2024-01-20T12:51:17.419Z,29.80
2024-01-20T12:53:46.084Z,27.80
2024-01-20T12:56:15.041Z,26.37
2024-01-20T12:58:43.565Z,30.03
2024-01-20T13:01:13.549Z,28.90
2024-01-20T13:03:42.068Z,27.27
2024-01-20T13:06:11.211Z,27.23
2024-01-20T13:08:39.710Z,25.10
2024-01-20T13:11:08.204Z,26.13
2024-01-20T13:13:36.784Z,33.27
2024-01-20T13:16:07.407Z,26.20
2024-01-20T13:18:37.651Z,24.10
2024-01-20T13:21:06.298Z,21.13
2024-01-20T13:23:34.979Z,22.57
2024-01-20T13:26:03.575Z,25.43
2024-01-20T13:28:34.254Z,20.20
2024-01-20T13:31:03.087Z,21.30
2024-01-20T13:33:32.400Z,19.37
2024-01-20T13:36:02.288Z,20.10
2024-01-20T13:38:31.083Z,23.03
2024-01-20T13:40:59.843Z,21.40
2024-01-20T13:43:28.314Z,19.30
2024-01-20T13:45:57.172Z,24.33
2024-01-20T13:48:25.964Z,20.20
2024-01-20T13:50:54.735Z,23.10
2024-01-20T13:53:25.481Z,19.77
2024-01-20T13:55:54.051Z,20.50
2024-01-20T13:58:22.472Z,20.43
2024-01-20T14:00:51.276Z,22.50
2024-01-20T14:03:19.901Z,18.80
2024-01-20T14:05:50.436Z,19.47
2024-01-20T14:08:19.896Z,20.20
2024-01-20T14:10:49.848Z,19.60
2024-01-20T14:13:18.465Z,19.27
2024-01-20T14:15:47.066Z,18.53
2024-01-20T14:18:15.785Z,18.30
2024-01-20T14:20:44.406Z,21.83
2024-01-20T14:23:12.827Z,19.10
2024-01-20T14:25:41.289Z,20.17
2024-01-20T14:28:11.179Z,18.17
2024-01-20T14:30:41.144Z,24.87
2024-01-20T14:33:10.689Z,19.43
2024-01-20T14:35:39.276Z,18.17
2024-01-20T14:38:07.795Z,18.57
2024-01-20T14:40:36.524Z,16.53
2024-01-20T14:43:06.715Z,21.30
2024-01-20T14:45:37.401Z,19.23
2024-01-20T14:48:08.352Z,21.93
2024-01-20T14:50:37.183Z,22.80
2024-01-20T14:53:05.877Z,21.30
2024-01-20T14:55:34.266Z,17.63
2024-01-20T14:58:03.548Z,19.30
2024-01-20T15:00:32.125Z,17.83
2024-01-20T15:03:02.255Z,23.17
2024-01-20T15:05:30.797Z,25.03
2024-01-20T15:07:59.531Z,20.40
2024-01-20T15:10:28.034Z,22.10
2024-01-20T15:12:56.478Z,20.10
2024-01-20T15:15:24.982Z,22.93
2024-01-20T15:17:53.444Z,18.60
2024-01-20T15:20:23.305Z,21.40
2024-01-20T15:22:51.925Z,18.10
2024-01-20T15:25:20.435Z,23.80
2024-01-20T15:27:49.056Z,20.20
2024-01-20T15:30:17.806Z,21.20
2024-01-20T15:32:46.380Z,24.53
2024-01-20T15:35:15.147Z,21.10
2024-01-20T15:37:44.995Z,23.00
2024-01-20T15:40:14.539Z,25.67
2024-01-20T15:42:43.075Z,18.83
2024-01-20T15:45:12.041Z,20.10
2024-01-20T15:47:40.589Z,26.30
2024-01-20T15:50:09.898Z,23.70
2024-01-20T15:52:38.453Z,23.63
2024-01-20T15:55:10.786Z,20.67
2024-01-20T15:57:39.483Z,25.90
2024-01-20T16:00:12.129Z,20.97
2024-01-20T16:02:40.766Z,26.50
2024-01-20T16:05:10.206Z,20.67
2024-01-20T16:07:38.869Z,21.13
2024-01-20T16:10:09.991Z,22.10
2024-01-20T16:12:40.674Z,21.00
2024-01-20T16:15:12.203Z,21.43
2024-01-20T16:17:41.416Z,21.93
2024-01-20T16:20:11.292Z,22.33
2024-01-20T16:22:40.899Z,26.13
2024-01-20T16:25:10.979Z,19.03
2024-01-20T16:27:39.593Z,23.50
2024-01-20T16:30:10.124Z,21.23
2024-01-20T16:32:38.704Z,24.80
2024-01-20T16:35:08.082Z,24.40
2024-01-20T16:37:37.252Z,20.77
2024-01-20T16:40:07.086Z,21.27
2024-01-20T16:42:37.008Z,26.77
2024-01-20T16:45:06.526Z,21.53
2024-01-20T16:47:35.185Z,23.13
2024-01-20T16:50:04.041Z,23.87
2024-01-20T16:52:32.745Z,27.13
2024-01-20T16:55:14.084Z,24.30
2024-01-20T16:57:45.641Z,21.97
2024-01-20T17:00:15.628Z,24.70
2024-01-20T17:02:44.143Z,28.43
2024-01-20T17:05:12.668Z,29.70
2024-01-20T17:07:42.181Z,27.15
2024-01-20T17:10:12.409Z,29.70
2024-01-20T17:12:40.923Z,26.30
2024-01-20T17:15:12.481Z,29.03
2024-01-20T17:17:41.052Z,29.77
2024-01-20T17:20:11.017Z,29.60
2024-01-20T17:22:39.368Z,28.33
2024-01-20T17:25:09.809Z,25.95
2024-01-20T17:27:39.899Z,28.77
2024-01-20T17:30:11.864Z,26.83
2024-01-20T17:32:40.873Z,29.70
2024-01-20T17:35:10.345Z,28.13
2024-01-20T17:37:39.048Z,27.13
2024-01-20T17:40:10.170Z,32.60
2024-01-20T17:42:38.780Z,26.90
2024-01-20T17:45:11.282Z,28.50
2024-01-20T17:47:40.955Z,26.10
2024-01-20T17:50:09.924Z,29.88
2024-01-20T17:52:38.747Z,31.63
2024-01-20T17:55:08.544Z,27.33
2024-01-20T17:57:37.065Z,26.20
2024-01-20T18:00:07.915Z,31.00
2024-01-20T18:02:46.901Z,33.23
2024-01-20T18:05:15.794Z,27.98
2024-01-20T18:07:50.450Z,27.67
2024-01-20T18:10:20.413Z,29.70
2024-01-20T18:12:49.097Z,31.35
2024-01-20T18:15:17.944Z,36.33
2024-01-20T18:17:47.852Z,31.17
2024-01-20T18:20:16.327Z,29.23
2024-01-20T18:22:46.428Z,29.00
2024-01-20T18:25:14.860Z,31.60
2024-01-20T18:27:43.277Z,34.10
2024-01-20T18:30:12.306Z,31.58
2024-01-20T18:32:41.036Z,30.98
2024-01-20T18:35:12.977Z,32.10
2024-01-20T18:37:42.980Z,30.90
2024-01-20T18:40:14.106Z,31.73
2024-01-20T18:42:43.302Z,35.65
2024-01-20T18:45:12.035Z,29.67
2024-01-20T18:47:41.881Z,37.30
2024-01-20T18:50:12.552Z,30.92
2024-01-20T18:52:40.943Z,26.58
2024-01-20T18:55:10.039Z,32.85
2024-01-20T18:57:39.587Z,41.47
2024-01-20T19:00:09.414Z,33.35
2024-01-20T19:02:37.900Z,33.95
2024-01-20T19:05:07.215Z,33.97
2024-01-20T19:07:37.591Z,34.85
2024-01-20T19:10:10.972Z,40.45
2024-01-20T19:12:41.197Z,33.10
2024-01-20T19:15:10.380Z,31.55
2024-01-20T19:17:38.956Z,33.80
2024-01-20T19:20:10.498Z,33.58
2024-01-20T19:22:40.263Z,37.42
2024-01-20T19:25:11.549Z,35.55
2024-01-20T19:27:40.164Z,33.15
2024-01-20T19:30:10.508Z,30.95
2024-01-20T19:32:39.190Z,37.75
2024-01-20T19:35:08.099Z,35.27
2024-01-20T19:37:36.445Z,37.50
2024-01-20T19:40:08.980Z,35.00
2024-01-20T19:42:37.539Z,33.28
2024-01-20T19:45:06.947Z,30.98
2024-01-20T19:47:37.676Z,31.55
2024-01-20T19:50:08.381Z,37.83
2024-01-20T19:52:38.531Z,36.45
2024-01-20T19:55:09.691Z,34.55
2024-01-20T19:57:39.050Z,37.15
2024-01-20T20:00:10.801Z,40.20
2024-01-20T20:02:42.783Z,38.72
2024-01-20T20:05:11.327Z,34.83
2024-01-20T20:07:39.785Z,40.67
2024-01-20T20:10:10.781Z,30.40
2024-01-20T20:12:39.335Z,31.30
2024-01-20T20:15:10.151Z,35.15
2024-01-20T20:17:39.242Z,31.17
2024-01-20T20:20:09.237Z,33.42
2024-01-20T20:22:37.647Z,35.13
2024-01-20T20:25:06.907Z,36.83
2024-01-20T20:27:36.758Z,30.23
2024-01-20T20:30:06.220Z,39.40
2024-01-20T20:32:34.843Z,31.98
2024-01-20T20:35:03.452Z,29.20
2024-01-20T20:37:31.901Z,28.90
2024-01-20T20:40:00.352Z,29.70
2024-01-20T20:42:28.993Z,27.00
2024-01-20T20:44:58.811Z,32.20
2024-01-20T20:47:27.316Z,29.63
2024-01-20T20:49:55.897Z,29.02
2024-01-20T20:52:24.400Z,31.00
2024-01-20T20:54:53.463Z,30.48
2024-01-20T20:57:21.947Z,29.47
2024-01-20T20:59:50.450Z,27.03
2024-01-20T21:02:22.179Z,26.67
2024-01-20T21:04:50.731Z,30.37
2024-01-20T21:07:22.858Z,27.13
2024-01-20T21:09:53.912Z,29.20
2024-01-20T21:12:22.770Z,26.90
2024-01-20T21:14:51.187Z,25.55
2024-01-20T21:17:21.039Z,24.48
2024-01-20T21:19:50.106Z,27.30
2024-01-20T21:22:18.657Z,25.48
2024-01-20T21:24:47.411Z,25.55
2024-01-20T21:27:15.928Z,25.02
2024-01-20T21:29:45.329Z,22.20
2024-01-20T21:32:13.867Z,23.08
2024-01-20T21:34:44.014Z,26.75
2024-01-20T21:37:12.404Z,31.70
2024-01-20T21:39:40.916Z,29.42
2024-01-20T21:42:10.758Z,31.70
2024-01-20T21:44:39.369Z,31.70
2024-01-20T21:47:07.891Z,34.88
2024-01-20T21:49:37.227Z,33.42
2024-01-20T21:52:08.257Z,34.40
2024-01-20T21:54:36.675Z,29.02
2024-01-20T21:57:06.062Z,32.03
2024-01-20T21:59:34.559Z,25.77
2024-01-20T22:02:02.949Z,27.25
2024-01-20T22:04:31.318Z,28.70
2024-01-20T22:06:59.796Z,24.92
2024-01-20T22:09:29.729Z,26.00
2024-01-20T22:11:58.253Z,28.20
2024-01-20T22:14:26.683Z,25.23
2024-01-20T22:16:55.080Z,28.25
2024-01-20T22:19:23.633Z,26.48
2024-01-20T22:21:52.173Z,27.88
2024-01-20T22:24:21.505Z,27.37
2024-01-20T22:26:51.474Z,25.65
2024-01-20T22:29:28.428Z,24.35
2024-01-20T22:32:01.345Z,20.67
2024-01-20T22:34:32.811Z,19.27
2024-01-20T22:37:01.931Z,19.90
2024-01-20T22:39:30.727Z,18.13
2024-01-20T22:42:00.549Z,24.80
2024-01-20T22:44:29.125Z,20.45
2024-01-20T22:46:57.525Z,15.07
2024-01-20T22:49:26.160Z,18.27
2024-01-20T22:51:54.622Z,16.27
2024-01-20T22:54:26.002Z,19.00
2024-01-20T22:56:54.411Z,18.10
2024-01-20T22:59:24.297Z,14.40
2024-01-20T23:01:52.903Z,17.63
2024-01-20T23:04:21.418Z,17.42
2024-01-20T23:06:52.037Z,17.27
2024-01-20T23:09:21.939Z,14.23
2024-01-20T23:11:50.626Z,14.73
2024-01-20T23:14:19.036Z,15.55
2024-01-20T23:16:49.017Z,15.90
2024-01-20T23:19:17.660Z,12.13
2024-01-20T23:21:46.107Z,14.45
2024-01-20T23:24:14.533Z,14.23
2024-01-20T23:26:44.309Z,10.75
2024-01-20T23:29:13.375Z,13.25
2024-01-20T23:31:41.949Z,11.30
2024-01-20T23:34:12.679Z,15.95
2024-01-20T23:36:41.619Z,14.63
2024-01-20T23:39:13.308Z,14.23
2024-01-20T23:41:41.799Z,12.95
2024-01-20T23:44:11.206Z,11.85
2024-01-20T23:46:39.559Z,12.90
2024-01-20T23:49:08.011Z,13.80
2024-01-20T23:51:37.907Z,13.52
2024-01-20T23:54:06.448Z,14.18
2024-01-20T23:56:34.841Z,10.98
2024-01-20T23:59:03.563Z,12.20
